createdAt,value
2018-04-22T00:02:24.592Z,12.10
2018-04-22T00:04:52.090Z,12.10
2018-04-22T00:07:19.523Z,12.10
2018-04-22T00:09:46.993Z,12.00
2018-04-22T00:12:14.481Z,11.90
2018-04-22T00:14:41.953Z,11.50
2018-04-22T00:17:09.425Z,11.50
2018-04-22T00:19:36.889Z,11.50
2018-04-22T00:22:04.356Z,11.60
2018-04-22T00:24:31.833Z,11.50
2018-04-22T00:26:59.300Z,11.50
2018-04-22T00:29:26.760Z,11.50
2018-04-22T00:31:54.245Z,11.50
2018-04-22T00:34:22.478Z,11.60
2018-04-22T00:36:49.940Z,11.60
2018-04-22T00:39:17.407Z,11.60
2018-04-22T00:41:44.872Z,11.60
2018-04-22T00:44:12.332Z,11.50
2018-04-22T00:46:39.831Z,11.50
2018-04-22T00:49:07.294Z,11.50
2018-04-22T00:51:34.752Z,11.50
2018-04-22T00:54:14.201Z,11.60
2018-04-22T00:56:41.661Z,11.50
2018-04-22T00:59:09.128Z,11.30
2018-04-22T01:01:36.590Z,11.20
2018-04-22T01:04:04.065Z,11.30
2018-04-22T01:06:31.529Z,11.30
2018-04-22T01:08:59.001Z,11.30
2018-04-22T01:11:26.456Z,11.10
2018-04-22T01:13:53.933Z,11.00
2018-04-22T01:16:22.156Z,10.90
2018-04-22T01:18:49.629Z,10.90
2018-04-22T01:21:17.097Z,10.70
2018-04-22T01:23:44.582Z,10.60
2018-04-22T01:26:12.808Z,10.10
2018-04-22T01:28:40.290Z,10.10
2018-04-22T01:31:07.752Z,10.20
2018-04-22T01:33:35.224Z,10.20
2018-04-22T01:36:02.681Z,10.10
2018-04-22T01:38:30.397Z,10.20
2018-04-22T01:40:57.859Z,10.30
2018-04-22T01:43:25.356Z,10.20
2018-04-22T01:45:52.824Z,10.30
2018-04-22T01:48:20.304Z,10.30
2018-04-22T01:50:48.534Z,10.40
2018-04-22T01:53:16.000Z,10.40
2018-04-22T01:55:43.464Z,10.40
2018-04-22T01:58:10.939Z,10.30
2018-04-22T02:00:39.170Z,10.30
2018-04-22T02:03:06.643Z,10.20
2018-04-22T02:05:34.108Z,10.20
2018-04-22T02:08:01.590Z,10.10
2018-04-22T02:10:29.810Z,9.80
2018-04-22T02:12:57.268Z,9.80
2018-04-22T02:15:24.732Z,9.90
2018-04-22T02:17:52.200Z,10.00
2018-04-22T02:20:20.438Z,10.20
2018-04-22T02:22:47.900Z,10.20
2018-04-22T02:25:15.365Z,10.20
2018-04-22T02:27:42.833Z,10.20
2018-04-22T02:30:10.309Z,10.20
2018-04-22T02:32:37.803Z,10.20
2018-04-22T02:35:05.261Z,10.00
2018-04-22T02:37:32.732Z,10.00
2018-04-22T02:40:00.966Z,10.20
2018-04-22T02:42:29.206Z,10.10
2018-04-22T02:44:56.673Z,10.10
2018-04-22T02:47:24.142Z,10.00
2018-04-22T02:49:51.624Z,10.00
2018-04-22T02:52:19.103Z,10.00
2018-04-22T02:54:46.574Z,10.10
2018-04-22T02:57:14.813Z,10.10
2018-04-22T02:59:42.293Z,10.10
2018-04-22T03:02:09.762Z,10.10
2018-04-22T03:04:38.010Z,10.10
2018-04-22T03:07:05.489Z,10.20
2018-04-22T03:09:32.961Z,9.90
2018-04-22T03:12:01.185Z,9.80
2018-04-22T03:14:28.666Z,9.70
2018-04-22T03:16:56.133Z,9.60
2018-04-22T03:19:23.601Z,9.40
2018-04-22T03:21:51.838Z,9.30
2018-04-22T03:24:19.305Z,9.20
2018-04-22T03:26:46.774Z,9.30
2018-04-22T03:29:14.253Z,9.30
2018-04-22T03:31:42.478Z,9.50
2018-04-22T03:34:09.972Z,9.50
2018-04-22T03:36:37.434Z,9.50
2018-04-22T03:39:05.569Z,9.50
2018-04-22T03:44:25.791Z,9.60
2018-04-22T03:46:53.261Z,9.70
2018-04-22T03:49:20.784Z,9.70
2018-04-22T03:51:48.246Z,9.70
2018-04-22T03:54:15.729Z,9.60
2018-04-22T03:56:43.186Z,9.40
2018-04-22T03:59:10.678Z,9.40
2018-04-22T04:01:38.914Z,9.20
2018-04-22T04:04:06.385Z,9.20
2018-04-22T04:06:34.549Z,8.90
2018-04-22T04:09:02.023Z,8.90
2018-04-22T04:11:29.494Z,9.00
2018-04-22T04:13:56.981Z,9.10
2018-04-22T04:16:24.448Z,9.00
2018-04-22T04:19:03.808Z,9.00
2018-04-22T04:21:43.130Z,9.00
2018-04-22T04:27:21.886Z,9.10
2018-04-22T04:29:49.361Z,9.10
2018-04-22T04:32:16.831Z,9.10
2018-04-22T04:34:44.300Z,9.20
2018-04-22T04:37:11.775Z,9.30
2018-04-22T04:39:40.014Z,9.20
2018-04-22T04:42:07.479Z,9.20
2018-04-22T04:44:34.958Z,9.20
2018-04-22T04:47:03.189Z,9.30
2018-04-22T04:49:30.655Z,9.30
2018-04-22T04:51:58.122Z,9.40
2018-04-22T04:54:26.220Z,9.40
2018-04-22T04:56:53.682Z,9.30
2018-04-22T04:59:21.160Z,9.10
2018-04-22T05:01:49.399Z,9.20
2018-04-22T05:04:16.865Z,9.40
2018-04-22T05:06:44.330Z,9.30
2018-04-22T05:09:11.810Z,9.40
2018-04-22T05:11:40.044Z,9.60
2018-04-22T05:14:07.501Z,9.60
2018-04-22T05:16:34.977Z,9.60
2018-04-22T05:19:02.440Z,9.70
2018-04-22T05:21:29.922Z,9.70
2018-04-22T05:23:58.157Z,9.90
2018-04-22T05:26:25.633Z,9.90
2018-04-22T05:28:53.115Z,10.00
2018-04-22T05:31:21.365Z,10.20
2018-04-22T05:33:48.855Z,10.10
2018-04-22T05:36:17.136Z,10.20
2018-04-22T05:38:44.627Z,10.20
2018-04-22T05:41:12.107Z,10.30
2018-04-22T05:43:39.572Z,10.40
2018-04-22T05:46:07.048Z,10.50
2018-04-22T05:48:35.273Z,10.70
2018-04-22T05:51:02.749Z,10.60
2018-04-22T05:53:30.972Z,10.90
2018-04-22T05:55:59.213Z,11.00
2018-04-22T05:58:26.677Z,11.00
2018-04-22T06:00:54.162Z,11.20
2018-04-22T06:03:22.403Z,11.40
2018-04-22T06:05:49.904Z,11.40
2018-04-22T06:08:18.130Z,11.60
2018-04-22T06:10:45.618Z,11.60
2018-04-22T06:13:13.078Z,11.80
2018-04-22T06:15:40.550Z,11.90
2018-04-22T06:18:08.777Z,12.30
2018-04-22T06:20:36.261Z,12.30
2018-04-22T06:23:03.714Z,12.50
2018-04-22T06:25:31.193Z,12.70
2018-04-22T06:27:59.426Z,13.10
2018-04-22T06:30:27.675Z,13.30
2018-04-22T06:32:55.134Z,13.20
2018-04-22T06:35:22.604Z,13.40
2018-04-22T06:37:50.089Z,13.40
2018-04-22T06:40:17.604Z,13.60
2018-04-22T06:42:45.055Z,13.80
2018-04-22T06:45:13.285Z,14.20
2018-04-22T06:47:40.773Z,14.20
2018-04-22T06:50:08.233Z,14.40
2018-04-22T06:52:36.482Z,14.60
2018-04-22T06:55:03.941Z,14.60
2018-04-22T06:57:31.421Z,14.80
2018-04-22T06:59:58.888Z,15.00
2018-04-22T07:02:27.133Z,15.10
2018-04-22T07:04:54.602Z,15.10
2018-04-22T07:07:22.088Z,15.30
2018-04-22T07:09:50.318Z,15.50
2018-04-22T07:12:17.797Z,15.50
2018-04-22T07:14:45.266Z,15.70
2018-04-22T07:17:12.749Z,15.90
2018-04-22T07:19:40.976Z,16.20
2018-04-22T07:22:08.461Z,16.10
2018-04-22T07:24:35.932Z,16.40
2018-04-22T07:27:04.180Z,16.70
2018-04-22T07:29:31.641Z,16.70
2018-04-22T07:31:59.126Z,16.80
2018-04-22T07:34:27.353Z,17.10
2018-04-22T07:36:54.850Z,17.10
2018-04-22T07:39:22.317Z,17.20
2018-04-22T07:41:50.555Z,17.50
2018-04-22T07:44:18.035Z,17.50
2018-04-22T07:46:45.624Z,17.70
2018-04-22T07:49:13.861Z,17.80
2018-04-22T07:51:41.364Z,17.80
2018-04-22T07:54:08.837Z,18.00
2018-04-22T07:56:36.328Z,18.20
2018-04-22T07:59:03.798Z,18.30
2018-04-22T08:01:31.268Z,18.40
2018-04-22T08:03:58.741Z,18.50
2018-04-22T08:06:27.464Z,18.70
2018-04-22T08:08:54.944Z,18.70
2018-04-22T08:11:22.428Z,18.80
2018-04-22T08:13:49.899Z,19.00
2018-04-22T08:16:18.913Z,19.40
2018-04-22T08:18:47.140Z,19.50
2018-04-22T08:21:14.630Z,19.50
2018-04-22T08:23:42.431Z,19.60
2018-04-22T08:26:09.906Z,19.50
2018-04-22T08:28:37.369Z,19.70
2018-04-22T08:31:04.870Z,19.90
2018-04-22T08:33:32.335Z,19.90
2018-04-22T08:36:00.585Z,20.20
2018-04-22T08:38:28.063Z,20.20
2018-04-22T08:40:55.549Z,20.30
2018-04-22T08:43:23.075Z,20.40
2018-04-22T08:45:50.537Z,20.50
2018-04-22T08:48:18.031Z,20.60
2018-04-22T08:50:45.497Z,20.60
2018-04-22T08:53:12.991Z,20.70
2018-04-22T08:55:40.465Z,20.90
2018-04-22T08:58:07.950Z,21.10
2018-04-22T09:00:36.210Z,21.30
2018-04-22T09:03:03.703Z,21.20
2018-04-22T09:05:31.176Z,21.30
2018-04-22T09:07:58.655Z,21.50
2018-04-22T09:10:26.121Z,21.60
2018-04-22T09:12:53.609Z,21.70
2018-04-22T09:15:21.194Z,21.80
2018-04-22T09:17:48.631Z,21.80
2018-04-22T09:20:16.872Z,21.90
2018-04-22T09:22:44.344Z,21.90
2018-04-22T09:25:11.815Z,22.00
2018-04-22T09:27:39.305Z,22.10
2018-04-22T09:30:07.551Z,22.50
2018-04-22T09:32:35.042Z,22.50
2018-04-22T09:35:02.612Z,22.70
2018-04-22T09:37:30.129Z,22.90
2018-04-22T09:39:58.491Z,22.90
2018-04-22T09:42:25.986Z,22.90
2018-04-22T09:44:54.217Z,22.90
2018-04-22T09:47:21.702Z,22.90
2018-04-22T09:49:49.280Z,22.90
2018-04-22T09:52:16.751Z,23.00
2018-04-22T09:54:44.220Z,23.20
2018-04-22T09:57:11.757Z,23.20
2018-04-22T09:59:39.993Z,23.40
2018-04-22T10:02:13.272Z,23.40
2018-04-22T10:04:40.841Z,23.50
2018-04-22T10:07:09.122Z,23.60
2018-04-22T10:09:36.613Z,23.60
2018-04-22T10:12:04.883Z,23.70
2018-04-22T10:14:32.347Z,23.70
2018-04-22T10:16:59.842Z,23.90
2018-04-22T10:19:27.397Z,24.00
2018-04-22T10:21:54.932Z,24.00
2018-04-22T10:24:22.383Z,24.10
2018-04-22T10:26:49.858Z,24.30
2018-04-22T10:29:18.103Z,24.50
2018-04-22T10:31:45.578Z,24.50
2018-04-22T10:34:13.049Z,24.50
2018-04-22T10:36:41.300Z,24.40
2018-04-22T10:39:08.872Z,24.40
2018-04-22T10:41:36.350Z,24.40
2018-04-22T10:44:04.581Z,24.20
2018-04-22T10:46:32.095Z,24.20
2018-04-22T10:48:59.578Z,24.10
2018-04-22T10:51:27.072Z,24.00
2018-04-22T10:53:54.544Z,24.00
2018-04-22T10:56:22.008Z,24.00
2018-04-22T10:58:50.263Z,24.10
2018-04-22T11:01:17.791Z,24.10
2018-04-22T11:03:45.407Z,24.00
2018-04-22T11:06:12.873Z,24.10
2018-04-22T11:08:41.118Z,23.90
2018-04-22T11:11:08.604Z,23.90
2018-04-22T11:13:36.081Z,24.00
2018-04-22T11:16:04.370Z,24.30
2018-04-22T11:18:31.969Z,24.30
2018-04-22T11:20:59.441Z,24.30
2018-04-22T11:23:27.742Z,24.40
2018-04-22T11:25:56.018Z,24.40
2018-04-22T11:28:24.646Z,24.50
2018-04-22T11:30:52.880Z,24.60
2018-04-22T11:33:20.358Z,24.50
2018-04-22T11:35:48.633Z,24.40
2018-04-22T11:38:16.169Z,24.40
2018-04-22T11:40:43.709Z,24.40
2018-04-22T11:43:11.195Z,24.40
2018-04-22T11:45:39.473Z,24.60
2018-04-22T11:48:07.717Z,24.70
2018-04-22T11:50:35.197Z,24.70
2018-04-22T11:53:02.678Z,24.70
2018-04-22T11:55:30.968Z,24.90
2018-04-22T11:57:59.214Z,24.80
2018-04-22T12:00:27.477Z,24.70
2018-04-22T12:02:54.962Z,24.70
2018-04-22T12:05:23.216Z,24.60
2018-04-22T12:07:50.708Z,24.60
2018-04-22T12:10:19.000Z,24.90
2018-04-22T12:12:46.514Z,24.90
2018-04-22T12:15:14.086Z,25.10
2018-04-22T12:17:41.572Z,25.20
2018-04-22T12:20:09.824Z,25.10
2018-04-22T12:22:37.304Z,25.10
2018-04-22T12:25:05.571Z,25.30
2018-04-22T12:27:33.877Z,25.50
2018-04-22T12:30:01.385Z,25.50
2018-04-22T12:32:28.909Z,25.60
2018-04-22T12:34:56.387Z,25.70
2018-04-22T12:37:23.866Z,25.70
2018-04-22T12:39:51.341Z,25.70
2018-04-22T12:42:19.577Z,25.80
2018-04-22T12:44:47.064Z,25.70
2018-04-22T12:47:14.533Z,25.80
2018-04-22T12:49:42.031Z,25.90
2018-04-22T12:52:09.575Z,26.10
2018-04-22T12:54:37.121Z,26.10
2018-04-22T12:57:05.397Z,26.10
2018-04-22T12:59:33.700Z,26.10
2018-04-22T13:02:01.262Z,26.10
2018-04-22T13:04:28.816Z,26.10
2018-04-22T13:06:56.322Z,26.10
2018-04-22T13:09:23.806Z,26.30
2018-04-22T13:11:52.050Z,26.50
2018-04-22T13:14:19.524Z,26.50
2018-04-22T13:16:47.061Z,26.80
2018-04-22T13:19:14.545Z,27.00
2018-04-22T13:21:42.084Z,27.10
2018-04-22T13:24:10.346Z,27.30
2018-04-22T13:26:37.991Z,27.20
2018-04-22T13:29:06.040Z,27.20
2018-04-22T13:31:33.571Z,27.10
2018-04-22T13:34:01.061Z,26.90
2018-04-22T13:36:29.302Z,27.00
2018-04-22T13:38:56.784Z,27.00
2018-04-22T13:41:24.249Z,27.10
2018-04-22T13:43:52.502Z,27.10
2018-04-22T13:46:19.974Z,27.00
2018-04-22T13:48:47.473Z,27.00
2018-04-22T13:51:15.044Z,26.90
2018-04-22T13:53:43.273Z,27.00
2018-04-22T13:56:10.852Z,27.00
2018-04-22T13:58:39.173Z,26.80
2018-04-22T14:01:06.851Z,26.80
2018-04-22T14:03:34.338Z,26.90
2018-04-22T14:06:01.802Z,26.80
2018-04-22T14:08:29.289Z,26.70
2018-04-22T14:10:56.777Z,26.60
2018-04-22T14:13:24.252Z,26.60
2018-04-22T14:15:52.502Z,26.80
2018-04-22T14:18:19.984Z,26.80
2018-04-22T14:20:48.231Z,27.00
2018-04-22T14:23:15.710Z,27.00
2018-04-22T14:25:43.203Z,27.10
2018-04-22T14:28:10.677Z,27.20
2018-04-22T14:30:38.922Z,27.30
2018-04-22T14:33:06.406Z,27.30
2018-04-22T14:35:34.671Z,27.60
2018-04-22T14:38:02.169Z,27.60
2018-04-22T14:40:29.683Z,27.70
2018-04-22T14:42:57.166Z,27.90
2018-04-22T14:45:37.382Z,28.00
2018-04-22T14:48:04.895Z,28.00
2018-04-22T14:50:33.137Z,27.90
2018-04-22T14:53:00.695Z,27.90
2018-04-22T14:55:28.259Z,27.80
2018-04-22T14:57:55.839Z,27.50
2018-04-22T15:00:24.123Z,27.50
2018-04-22T15:02:52.441Z,27.50
2018-04-22T15:05:20.101Z,27.50
2018-04-22T15:07:48.334Z,27.50
2018-04-22T15:10:16.667Z,27.40
2018-04-22T15:12:44.177Z,27.40
2018-04-22T15:15:11.724Z,27.30
2018-04-22T15:17:39.242Z,27.20
2018-04-22T15:20:06.766Z,27.10
2018-04-22T15:22:35.514Z,27.00
2018-04-22T15:25:03.014Z,27.00
2018-04-22T15:27:31.260Z,26.80
2018-04-22T15:29:58.745Z,26.80
2018-04-22T15:32:26.998Z,26.70
2018-04-22T15:34:54.481Z,26.70
2018-04-22T15:37:22.721Z,26.70
2018-04-22T15:39:50.207Z,26.60
2018-04-22T15:42:17.681Z,26.70
2018-04-22T15:44:45.963Z,26.60
2018-04-22T15:47:13.465Z,26.60
2018-04-22T15:49:40.941Z,26.60
2018-04-22T15:52:08.422Z,26.60
2018-04-22T15:54:36.693Z,26.50
2018-04-22T15:57:05.062Z,26.50
2018-04-22T15:59:32.553Z,26.50
2018-04-22T16:02:00.937Z,26.40
2018-04-22T16:04:29.186Z,26.40
2018-04-22T16:06:56.668Z,26.40
2018-04-22T16:09:24.924Z,26.40
2018-04-22T16:11:52.389Z,26.40
2018-04-22T16:14:19.877Z,26.40
2018-04-22T16:16:49.073Z,26.40
2018-04-22T16:19:16.615Z,26.30
2018-04-22T16:21:44.846Z,26.30
2018-04-22T16:24:12.335Z,26.30
2018-04-22T16:26:39.821Z,26.20
2018-04-22T16:29:07.322Z,26.10
2018-04-22T16:31:34.879Z,26.10
2018-04-22T16:34:02.384Z,26.10
2018-04-22T16:36:30.625Z,26.00
2018-04-22T16:38:58.108Z,26.10
2018-04-22T16:41:25.599Z,25.90
2018-04-22T16:43:53.838Z,25.80
2018-04-22T16:46:21.381Z,25.80
2018-04-22T16:48:48.887Z,25.70
2018-04-22T16:51:17.138Z,25.60
2018-04-22T16:53:44.613Z,25.60
2018-04-22T16:56:12.871Z,25.50
2018-04-22T17:01:33.323Z,25.40
2018-04-22T17:04:01.550Z,25.30
2018-04-22T17:06:29.164Z,25.20
2018-04-22T17:08:56.745Z,25.20
2018-04-22T17:11:24.235Z,25.20
2018-04-22T17:13:51.717Z,25.10
2018-04-22T17:16:20.118Z,25.10
2018-04-22T17:18:48.541Z,24.90
2018-04-22T17:21:16.065Z,24.90
2018-04-22T17:23:43.582Z,24.80
2018-04-22T17:26:11.084Z,24.70
2018-04-22T17:28:38.600Z,24.50
2018-04-22T17:31:06.154Z,24.40
2018-04-22T17:33:47.056Z,24.20
2018-04-22T17:36:14.675Z,23.90
2018-04-22T17:38:42.163Z,23.80
2018-04-22T17:41:09.653Z,23.70
2018-04-22T17:43:37.184Z,23.70
2018-04-22T17:46:05.060Z,23.20
2018-04-22T17:48:32.529Z,22.80
2018-04-22T17:51:00.061Z,22.30
2018-04-22T17:53:27.782Z,21.80
2018-04-22T17:55:55.427Z,21.50
2018-04-22T17:58:23.658Z,20.60
2018-04-22T18:00:51.264Z,20.60
2018-04-22T18:03:18.784Z,20.30
2018-04-22T18:05:46.755Z,19.90
2018-04-22T18:08:14.233Z,19.70
2018-04-22T18:10:41.810Z,19.50
2018-04-22T18:13:10.065Z,18.50
2018-04-22T18:15:37.536Z,18.50
2018-04-22T18:18:05.050Z,18.20
2018-04-22T18:20:32.513Z,17.90
2018-04-22T18:22:59.985Z,17.80
2018-04-22T18:25:27.466Z,17.60
2018-04-22T18:27:54.943Z,17.50
2018-04-22T18:30:23.227Z,17.20
2018-04-22T18:32:51.528Z,17.20
2018-04-22T18:35:18.995Z,17.10
2018-04-22T18:37:46.530Z,17.20
2018-04-22T18:40:13.967Z,17.10
2018-04-22T18:42:42.215Z,17.10
2018-04-22T18:45:09.831Z,17.10
2018-04-22T18:47:37.362Z,17.20
2018-04-22T18:50:05.722Z,17.50
2018-04-22T18:52:34.170Z,17.40
2018-04-22T18:55:01.717Z,17.50
2018-04-22T18:57:29.701Z,17.40
2018-04-22T18:59:57.228Z,17.40
2018-04-22T19:02:24.749Z,17.50
2018-04-22T19:04:52.209Z,17.60
2018-04-22T19:07:19.675Z,17.80
2018-04-22T19:09:47.209Z,17.70
2018-04-22T19:12:14.687Z,17.50
2018-04-22T19:14:42.161Z,17.50
2018-04-22T19:17:10.414Z,17.70
2018-04-22T19:19:37.896Z,17.60
2018-04-22T19:22:05.394Z,17.70
2018-04-22T19:24:32.882Z,17.80
2018-04-22T19:27:00.362Z,17.80
2018-04-22T19:29:27.826Z,17.70
2018-04-22T19:31:55.305Z,17.60
2018-04-22T19:34:23.542Z,17.70
2018-04-22T19:36:51.019Z,17.70
2018-04-22T19:39:18.491Z,17.70
2018-04-22T19:41:46.738Z,17.80
2018-04-22T19:44:14.197Z,17.80
2018-04-22T19:46:41.699Z,17.80
2018-04-22T19:49:09.925Z,17.70
2018-04-22T19:51:37.753Z,17.70
2018-04-22T19:54:05.225Z,17.70
2018-04-22T19:56:32.700Z,17.70
2018-04-22T19:59:00.185Z,17.70
2018-04-22T20:01:27.669Z,17.80
2018-04-22T20:03:55.901Z,17.70
2018-04-22T20:06:23.390Z,17.70
2018-04-22T20:08:50.859Z,17.50
2018-04-22T20:11:19.102Z,17.40
2018-04-22T20:13:46.575Z,17.40
2018-04-22T20:16:14.053Z,17.30
2018-04-22T20:18:42.288Z,17.40
2018-04-22T20:21:09.776Z,17.40
2018-04-22T20:23:37.252Z,17.40
2018-04-22T20:26:05.518Z,17.20
2018-04-22T20:28:33.750Z,17.20
2018-04-22T20:31:01.230Z,17.20
2018-04-22T20:33:28.688Z,17.20
2018-04-22T20:35:56.176Z,17.40
2018-04-22T20:38:24.433Z,17.30
2018-04-22T20:40:51.907Z,17.30
2018-04-22T20:43:19.377Z,17.30
2018-04-22T20:45:47.642Z,17.30
2018-04-22T20:48:15.882Z,17.50
2018-04-22T20:50:43.373Z,17.50
2018-04-22T20:53:10.855Z,17.50
2018-04-22T20:55:39.097Z,17.50
2018-04-22T20:58:06.577Z,17.40
2018-04-22T21:00:34.800Z,17.40
2018-04-22T21:03:02.266Z,17.40
2018-04-22T21:05:29.742Z,17.40
2018-04-22T21:07:57.201Z,17.40
2018-04-22T21:10:24.675Z,17.40
2018-04-22T21:12:52.139Z,17.50
2018-04-22T21:15:20.372Z,17.40
2018-04-22T21:17:47.849Z,17.40
2018-04-22T21:20:15.319Z,17.40
2018-04-22T21:22:42.788Z,17.40
2018-04-22T21:25:10.256Z,17.50
2018-04-22T21:27:38.499Z,17.70
2018-04-22T21:30:05.956Z,17.70
2018-04-22T21:32:33.429Z,17.60
2018-04-22T21:35:00.891Z,17.50
2018-04-22T21:37:28.380Z,17.40
2018-04-22T21:39:56.628Z,17.40
2018-04-22T21:42:24.092Z,17.40
2018-04-22T21:44:52.275Z,17.40
2018-04-22T21:47:20.516Z,17.50
2018-04-22T21:49:47.991Z,17.50
2018-04-22T21:52:15.496Z,17.60
2018-04-22T21:54:42.945Z,17.70
2018-04-22T21:57:10.425Z,17.80
2018-04-22T21:59:37.908Z,17.80
2018-04-22T22:04:58.265Z,17.80
2018-04-22T22:07:26.491Z,17.80
2018-04-22T22:09:54.720Z,17.70
2018-04-22T22:12:22.951Z,17.60
2018-04-22T22:14:51.185Z,17.60
2018-04-22T22:17:18.648Z,17.60
2018-04-22T22:19:46.107Z,17.70
2018-04-22T22:22:13.592Z,17.70
2018-04-22T22:24:41.048Z,17.70
2018-04-22T22:27:08.512Z,17.70
2018-04-22T22:29:35.969Z,17.70
2018-04-22T22:32:03.435Z,17.70
2018-04-22T22:34:30.905Z,17.70
2018-04-22T22:36:58.382Z,17.70
2018-04-22T22:39:25.851Z,17.60
2018-04-22T22:41:54.074Z,17.40
2018-04-22T22:44:21.528Z,17.40
2018-04-22T22:46:49.000Z,17.40
2018-04-22T22:49:16.455Z,17.30
2018-04-22T22:51:43.973Z,17.30
2018-04-22T22:54:12.199Z,17.20
2018-04-22T22:56:39.677Z,17.20
2018-04-22T22:59:07.136Z,17.20
2018-04-22T23:01:34.605Z,17.20
2018-04-22T23:04:02.825Z,17.20
2018-04-22T23:06:30.296Z,17.10
2018-04-22T23:08:58.147Z,17.10
2018-04-22T23:11:25.617Z,17.10
2018-04-22T23:13:53.067Z,17.10
2018-04-22T23:16:20.538Z,17.00
2018-04-22T23:18:48.004Z,17.00
2018-04-22T23:21:16.349Z,17.00
2018-04-22T23:23:43.813Z,17.00
2018-04-22T23:26:11.294Z,16.80
2018-04-22T23:28:38.749Z,16.80
2018-04-22T23:31:06.227Z,16.70
2018-04-22T23:33:33.677Z,16.70
2018-04-22T23:36:01.179Z,16.70
2018-04-22T23:38:29.424Z,16.60
2018-04-22T23:40:56.893Z,16.60
2018-04-22T23:43:24.365Z,16.70
2018-04-22T23:45:51.827Z,16.70
2018-04-22T23:48:19.281Z,16.60
2018-04-22T23:50:47.504Z,16.80
2018-04-22T23:53:14.975Z,16.80
2018-04-22T23:55:42.434Z,16.80
2018-04-22T23:58:09.995Z,16.80
